Time;durP1;ratioP1;P1;durP2;ratioP2;P2;SDS_P1;SDS_P2;PMS_P1;PMS_P2;Temp;Humidity;BMP_temperature;BMP_pressure;BME280_temperature;BME280_humidity;BME280_pressure;Samples;Min_cycle;Max_cycle;Signal;HPM_P1;HPM_P2
2021/09/12 00:04:14;;;;;;;22.87;14.07;;;;;;;17.73;100.00;100328.30;714520;1199;114552;-76
2021/09/12 00:19:17;;;;;;;25.20;15.97;;;;;;;17.72;100.00;100318.69;715096;1177;114600;-76
2021/09/12 00:34:19;;;;;;;25.18;17.28;;;;;;;17.65;100.00;100317.78;714394;1203;114878;-76
2021/09/12 00:49:21;;;;;;;25.78;15.23;;;;;;;17.37;100.00;100320.20;714216;1177;115806;-76
2021/09/12 01:04:24;;;;;;;23.60;13.80;;;;;;;17.22;100.00;100309.55;714358;1175;114499;-76
2021/09/12 01:19:27;;;;;;;21.53;13.50;;;;;;;17.04;100.00;100302.73;713808;1199;114557;-76
2021/09/12 01:34:29;;;;;;;23.13;14.10;;;;;;;16.87;100.00;100320.53;713926;1177;114543;-77
2021/09/12 01:49:31;;;;;;;20.23;15.05;;;;;;;16.81;100.00;100307.98;713752;1202;115496;-76
2021/09/12 02:04:34;;;;;;;21.53;14.10;;;;;;;16.70;100.00;100306.56;713891;1181;115501;-76
2021/09/12 02:19:36;;;;;;;23.25;15.15;;;;;;;16.74;100.00;100304.40;713725;1176;115797;-76
2021/09/12 02:34:38;;;;;;;37.15;19.53;;;;;;;16.70;100.00;100314.51;713804;1175;116029;-77
2021/09/12 02:49:40;;;;;;;31.10;16.90;;;;;;;16.55;100.00;100313.59;713856;1199;116080;-76
2021/09/12 03:04:43;;;;;;;24.58;16.63;;;;;;;16.26;100.00;100318.53;713807;1203;115438;-77
2021/09/12 03:19:45;;;;;;;26.23;17.43;;;;;;;16.24;100.00;100319.70;713771;1199;115782;-78
2021/09/12 03:34:47;;;;;;;26.38;17.48;;;;;;;16.11;100.00;100328.17;713748;1199;116237;-77
2021/09/12 03:49:49;;;;;;;21.58;15.33;;;;;;;15.80;100.00;100300.65;713649;1203;114601;-77
2021/09/12 04:04:52;;;;;;;30.93;18.73;;;;;;;15.72;100.00;100305.12;713831;1203;113724;-77
2021/09/12 04:19:53;;;;;;;17.47;13.77;;;;;;;15.45;100.00;100309.76;714095;1199;114990;-78
2021/09/12 04:34:56;;;;;;;19.55;13.93;;;;;;;15.30;100.00;100309.61;713977;1203;115016;-79
2021/09/12 04:49:58;;;;;;;19.70;13.03;;;;;;;15.13;100.00;100319.34;713861;1200;114996;-78
2021/09/12 05:05:00;;;;;;;20.75;14.10;;;;;;;15.11;100.00;100324.80;714029;1202;116475;-76
2021/09/12 05:20:04;;;;;;;24.28;16.13;;;;;;;15.34;100.00;100320.69;714040;1203;114867;-77
2021/09/12 05:35:06;;;;;;;26.75;16.45;;;;;;;15.79;100.00;100320.12;714263;1205;115010;-77
2021/09/12 05:50:09;;;;;;;32.58;18.38;;;;;;;16.23;100.00;100321.53;714079;1202;115003;-76
2021/09/12 06:05:11;;;;;;;30.13;17.20;;;;;;;16.78;100.00;100327.70;714199;1199;115749;-77
2021/09/12 06:20:14;;;;;;;24.40;13.80;;;;;;;16.94;100.00;100337.39;714204;1203;115034;-78
2021/09/12 06:35:16;;;;;;;19.95;11.70;;;;;;;17.21;100.00;100343.19;714526;1203;115210;-78
2021/09/12 06:50:18;;;;;;;17.37;11.80;;;;;;;17.58;100.00;100349.52;714223;1205;115348;-73
2021/09/12 07:05:21;;;;;;;19.20;12.35;;;;;;;18.20;100.00;100341.44;714361;1200;115016;-73
2021/09/12 07:20:23;;;;;;;16.78;12.93;;;;;;;18.86;100.00;100356.52;714268;1203;115552;-73
2021/09/12 07:35:26;;;;;;;17.00;12.15;;;;;;;19.06;100.00;100359.45;714212;1199;114975;-74
2021/09/12 07:50:29;;;;;;;20.15;13.25;;;;;;;19.32;100.00;100372.17;714808;1174;115097;-74
2021/09/12 08:05:34;;;;;;;19.05;13.05;;;;;;;19.64;100.00;100372.64;714821;1176;114782;-74
2021/09/12 08:20:37;;;;;;;14.40;10.87;;;;;;;20.61;100.00;100375.47;714071;1199;116102;-74
2021/09/12 08:35:41;;;;;;;12.03;9.67;;;;;;;22.01;100.00;100372.16;714182;1205;115685;-74
2021/09/12 08:50:44;;;;;;;11.03;8.20;;;;;;;22.67;100.00;100374.86;713946;1200;114289;-72
2021/09/12 09:05:50;;;;;;;12.20;7.40;;;;;;;22.98;100.00;100358.03;714454;1200;115560;-72
2021/09/12 09:20:52;;;;;;;11.88;9.23;;;;;;;24.39;100.00;100360.30;714259;1199;115037;-72
2021/09/12 09:36:02;;;;;;;13.47;9.07;;;;;;;25.46;100.00;100371.43;714032;1200;115899;-72
2021/09/12 09:51:04;;;;;;;10.10;8.13;;;;;;;25.87;100.00;100358.13;714239;1183;114386;-73
2021/09/12 10:06:07;;;;;;;8.90;7.43;;;;;;;24.89;100.00;100329.75;714256;1177;115252;-74
2021/09/12 10:21:30;;;;;;;8.70;7.08;;;;;;;25.51;99.98;100338.50;714316;1177;114249;-73
2021/09/12 10:36:33;;;;;;;12.60;9.45;;;;;;;25.11;98.59;100333.77;714231;1180;114000;-73
2021/09/12 10:51:36;;;;;;;10.73;9.05;;;;;;;25.91;96.39;100327.05;714166;1199;114662;-73
2021/09/12 11:06:43;;;;;;;13.47;10.33;;;;;;;26.01;93.55;100316.52;714172;1203;115005;-73
2021/09/12 11:21:48;;;;;;;10.98;9.80;;;;;;;25.20;95.12;100319.77;714249;1203;114853;-73
2021/09/12 11:36:55;;;;;;;11.80;8.45;;;;;;;24.66;96.95;100303.66;714108;1199;115431;-73
2021/09/12 11:51:57;;;;;;;10.10;9.10;;;;;;;25.62;95.90;100300.09;714458;1177;115298;-73
2021/09/12 12:07:00;;;;;;;14.23;10.53;;;;;;;25.88;90.30;100306.84;714310;1200;115640;-73
2021/09/12 12:22:05;;;;;;;11.25;10.05;;;;;;;27.25;85.06;100264.93;714090;1200;115490;-73
2021/09/12 12:37:15;;;;;;;15.43;10.83;;;;;;;27.22;80.52;100260.85;714303;1200;115607;-74
2021/09/12 12:52:17;;;;;;;8.30;7.45;;;;;;;26.67;79.73;100257.02;714147;1200;114887;-75
2021/09/12 13:07:20;;;;;;;7.73;6.93;;;;;;;26.70;77.36;100251.14;714139;1202;115347;-75
2021/09/12 13:22:22;;;;;;;6.63;4.83;;;;;;;26.92;75.85;100252.32;716846;1203;114848;-74
2021/09/12 13:37:24;;;;;;;6.30;5.50;;;;;;;26.49;76.81;100254.55;714177;1200;114392;-75
2021/09/12 13:52:26;;;;;;;4.43;4.03;;;;;;;32.05;71.50;100234.88;714240;1200;114091;-74
2021/09/12 14:07:29;;;;;;;4.17;3.57;;;;;;;37.77;57.33;100214.75;714113;1201;114372;-72
2021/09/12 14:22:32;;;;;;;5.40;3.43;;;;;;;32.93;58.08;100202.45;714152;1205;115026;-74
2021/09/12 14:37:35;;;;;;;6.50;4.35;;;;;;;30.10;63.18;100207.00;714121;1203;113994;-74
2021/09/12 14:52:37;;;;;;;5.80;3.80;;;;;;;30.93;62.85;100197.03;714373;1175;114481;-75
2021/09/12 15:07:40;;;;;;;9.40;5.48;;;;;;;32.98;60.09;100181.51;714132;1200;114215;-73
2021/09/12 15:22:47;;;;;;;4.23;3.83;;;;;;;29.11;61.70;100175.23;714195;1199;115456;-74
2021/09/12 15:37:50;;;;;;;4.10;3.70;;;;;;;29.08;63.31;100173.06;714133;1199;115246;-75
2021/09/12 15:52:52;;;;;;;6.83;6.13;;;;;;;27.98;65.45;100162.44;714410;1199;114595;-74
2021/09/12 16:07:55;;;;;;;6.38;4.28;;;;;;;27.28;64.42;100154.06;715088;1199;114800;-75
2021/09/12 16:22:59;;;;;;;8.00;5.68;;;;;;;24.40;71.45;100144.82;714265;1174;114120;-89
2021/09/12 16:38:01;;;;;;;8.18;5.45;;;;;;;23.54;76.32;100157.49;715929;1203;113970;-80
2021/09/12 16:53:03;;;;;;;6.33;4.60;;;;;;;22.83;81.65;100197.06;714304;1199;114282;-78
2021/09/12 17:08:06;;;;;;;6.18;4.45;;;;;;;21.95;86.54;100226.15;717209;1199;114039;-88
2021/09/12 17:23:08;;;;;;;7.08;5.25;;;;;;;20.72;98.82;100233.69;714782;1199;115429;-72
2021/09/12 17:38:11;;;;;;;34.35;15.40;;;;;;;20.64;100.00;100220.53;714398;1200;114040;-72
2021/09/12 17:53:13;;;;;;;13.60;7.87;;;;;;;20.58;100.00;100222.14;714335;1199;115357;-71
2021/09/12 18:08:18;;;;;;;13.07;7.63;;;;;;;20.60;100.00;100219.27;714043;1200;114550;-73
2021/09/12 18:23:21;;;;;;;9.75;4.80;;;;;;;20.29;100.00;100224.13;714206;1177;114260;-72
2021/09/12 18:38:23;;;;;;;8.33;5.10;;;;;;;20.18;100.00;100226.55;714364;1200;115149;-71
2021/09/12 18:53:25;;;;;;;16.75;9.58;;;;;;;20.02;100.00;100249.02;714349;1199;115347;-71
2021/09/12 19:08:28;;;;;;;7.75;5.95;;;;;;;20.01;100.00;100258.86;715017;1176;116287;-70
2021/09/12 19:23:30;;;;;;;7.30;5.53;;;;;;;19.93;100.00;100256.38;716045;1200;114788;-72
2021/09/12 19:38:33;;;;;;;8.35;6.13;;;;;;;19.90;100.00;100262.07;714822;1203;114944;-71
2021/09/12 19:53:40;;;;;;;9.35;6.33;;;;;;;19.67;100.00;100268.47;714917;1199;115063;-71
2021/09/12 20:08:43;;;;;;;9.00;6.23;;;;;;;19.54;100.00;100263.07;715274;1199;114791;-71
2021/09/12 20:23:49;;;;;;;11.05;7.43;;;;;;;19.23;100.00;100273.09;715126;1200;114601;-72
2021/09/12 20:38:51;;;;;;;10.40;7.00;;;;;;;19.05;100.00;100281.52;714823;1178;114200;-71
2021/09/12 20:53:53;;;;;;;9.50;6.67;;;;;;;18.87;100.00;100283.77;714403;1203;115139;-72
2021/09/12 21:08:55;;;;;;;11.73;7.88;;;;;;;18.54;100.00;100292.22;714443;1199;114749;-72
2021/09/12 21:23:58;;;;;;;9.18;6.93;;;;;;;18.51;100.00;100296.06;714247;1200;115163;-72
2021/09/12 21:39:00;;;;;;;11.83;8.20;;;;;;;18.43;100.00;100293.53;714010;1176;114617;-72
2021/09/12 21:54:02;;;;;;;11.48;7.78;;;;;;;18.43;100.00;100294.34;713816;1177;114327;-71
2021/09/12 22:09:05;;;;;;;12.75;8.35;;;;;;;18.42;100.00;100302.50;713841;1178;114820;-72
2021/09/12 22:24:07;;;;;;;12.27;8.33;;;;;;;18.27;100.00;100289.27;713942;1178;115123;-72
2021/09/12 22:39:09;;;;;;;12.50;8.95;;;;;;;18.22;100.00;100281.03;714099;1199;115233;-72
2021/09/12 22:54:11;;;;;;;16.27;9.47;;;;;;;18.02;100.00;100281.59;713866;1199;116009;-71
2021/09/12 23:09:13;;;;;;;13.43;9.28;;;;;;;17.96;100.00;100277.85;713842;1200;115573;-73
2021/09/12 23:24:15;;;;;;;13.60;9.80;;;;;;;17.77;100.00;100268.57;713776;1200;115233;-71
2021/09/12 23:39:17;;;;;;;20.35;11.68;;;;;;;17.57;100.00;100273.59;713716;1192;114472;-71
2021/09/12 23:54:19;;;;;;;13.55;9.53;;;;;;;17.26;100.00;100265.77;713853;1180;116112;-74
